sensor_id;sensor_type;location;lat;lon;timestamp;temperature;humidity
45329;DHT22;31063;48.356;10.896;2022-07-29T00:01:33;17.60;99.90
45329;DHT22;31063;48.356;10.896;2022-07-29T00:03:58;17.70;99.90
45329;DHT22;31063;48.356;10.896;2022-07-29T00:06:24;17.70;99.90
45329;DHT22;31063;48.356;10.896;2022-07-29T00:08:50;17.70;99.90
45329;DHT22;31063;48.356;10.896;2022-07-29T00:11:15;17.60;99.90
45329;DHT22;31063;48.356;10.896;2022-07-29T00:13:41;17.70;99.90
45329;DHT22;31063;48.356;10.896;2022-07-29T00:16:07;17.70;99.90
45329;DHT22;31063;48.356;10.896;2022-07-29T00:18:32;17.70;99.90
45329;DHT22;31063;48.356;10.896;2022-07-29T00:20:58;17.70;99.90
45329;DHT22;31063;48.356;10.896;2022-07-29T00:23:24;17.70;99.90
45329;DHT22;31063;48.356;10.896;2022-07-29T00:25:49;17.80;99.90
45329;DHT22;31063;48.356;10.896;2022-07-29T00:28:15;17.80;99.90
45329;DHT22;31063;48.356;10.896;2022-07-29T00:30:40;17.80;99.90
45329;DHT22;31063;48.356;10.896;2022-07-29T00:33:08;17.80;99.90
45329;DHT22;31063;48.356;10.896;2022-07-29T00:35:34;17.80;99.90
45329;DHT22;31063;48.356;10.896;2022-07-29T00:38:09;17.80;99.90
45329;DHT22;31063;48.356;10.896;2022-07-29T00:40:34;17.80;99.90
45329;DHT22;31063;48.356;10.896;2022-07-29T00:43:00;17.80;99.90
45329;DHT22;31063;48.356;10.896;2022-07-29T00:45:27;17.70;99.90
45329;DHT22;31063;48.356;10.896;2022-07-29T00:47:52;17.70;99.90
45329;DHT22;31063;48.356;10.896;2022-07-29T00:50:18;17.70;99.90
45329;DHT22;31063;48.356;10.896;2022-07-29T00:52:44;17.70;99.90
45329;DHT22;31063;48.356;10.896;2022-07-29T00:55:14;17.70;99.90
45329;DHT22;31063;48.356;10.896;2022-07-29T00:57:42;17.70;99.90
45329;DHT22;31063;48.356;10.896;2022-07-29T01:00:11;17.70;99.90
45329;DHT22;31063;48.356;10.896;2022-07-29T01:02:37;17.70;99.90
45329;DHT22;31063;48.356;10.896;2022-07-29T01:05:04;17.60;99.90
45329;DHT22;31063;48.356;10.896;2022-07-29T01:07:30;17.60;99.90
45329;DHT22;31063;48.356;10.896;2022-07-29T01:09:58;17.60;99.90
45329;DHT22;31063;48.356;10.896;2022-07-29T01:12:28;17.60;99.90
45329;DHT22;31063;48.356;10.896;2022-07-29T01:14:57;17.60;99.90
45329;DHT22;31063;48.356;10.896;2022-07-29T01:20:30;17.60;99.90
45329;DHT22;31063;48.356;10.896;2022-07-29T01:28:49;17.60;99.90
45329;DHT22;31063;48.356;10.896;2022-07-29T01:31:23;17.50;99.90
45329;DHT22;31063;48.356;10.896;2022-07-29T01:33:57;17.60;99.90
45329;DHT22;31063;48.356;10.896;2022-07-29T01:36:36;17.60;99.90
45329;DHT22;31063;48.356;10.896;2022-07-29T01:42:20;17.60;99.90
45329;DHT22;31063;48.356;10.896;2022-07-29T01:47:25;17.60;99.90
45329;DHT22;31063;48.356;10.896;2022-07-29T01:49:54;17.50;99.90
45329;DHT22;31063;48.356;10.896;2022-07-29T01:52:44;17.50;99.90
45329;DHT22;31063;48.356;10.896;2022-07-29T01:55:14;17.50;99.90
45329;DHT22;31063;48.356;10.896;2022-07-29T01:57:43;17.50;99.90
45329;DHT22;31063;48.356;10.896;2022-07-29T02:00:10;17.50;99.90
45329;DHT22;31063;48.356;10.896;2022-07-29T02:02:39;17.50;99.90
45329;DHT22;31063;48.356;10.896;2022-07-29T02:05:10;17.40;99.90
45329;DHT22;31063;48.356;10.896;2022-07-29T02:07:37;17.40;99.90
45329;DHT22;31063;48.356;10.896;2022-07-29T02:10:04;17.40;99.90
45329;DHT22;31063;48.356;10.896;2022-07-29T02:12:31;17.40;99.90
45329;DHT22;31063;48.356;10.896;2022-07-29T02:15:00;17.40;99.90
45329;DHT22;31063;48.356;10.896;2022-07-29T02:17:31;17.40;99.90
45329;DHT22;31063;48.356;10.896;2022-07-29T02:20:02;17.40;99.90
45329;DHT22;31063;48.356;10.896;2022-07-29T02:22:30;17.40;99.90
45329;DHT22;31063;48.356;10.896;2022-07-29T02:24:57;17.40;99.90
45329;DHT22;31063;48.356;10.896;2022-07-29T02:27:24;17.40;99.90
45329;DHT22;31063;48.356;10.896;2022-07-29T02:29:53;17.30;99.90
45329;DHT22;31063;48.356;10.896;2022-07-29T02:32:21;17.30;99.90
45329;DHT22;31063;48.356;10.896;2022-07-29T02:34:49;17.30;99.90
45329;DHT22;31063;48.356;10.896;2022-07-29T02:37:16;17.30;99.90
45329;DHT22;31063;48.356;10.896;2022-07-29T02:39:44;17.30;99.90
45329;DHT22;31063;48.356;10.896;2022-07-29T02:42:12;17.30;99.90
45329;DHT22;31063;48.356;10.896;2022-07-29T02:44:39;17.30;99.90
45329;DHT22;31063;48.356;10.896;2022-07-29T02:47:16;17.30;99.90
45329;DHT22;31063;48.356;10.896;2022-07-29T02:52:43;17.20;99.90
45329;DHT22;31063;48.356;10.896;2022-07-29T02:55:32;17.20;99.90
45329;DHT22;31063;48.356;10.896;2022-07-29T02:58:19;17.20;99.90
45329;DHT22;31063;48.356;10.896;2022-07-29T03:00:49;17.20;99.90
45329;DHT22;31063;48.356;10.896;2022-07-29T03:03:18;17.20;99.90
45329;DHT22;31063;48.356;10.896;2022-07-29T03:05:44;17.20;99.90
45329;DHT22;31063;48.356;10.896;2022-07-29T03:08:11;17.20;99.90
45329;DHT22;31063;48.356;10.896;2022-07-29T03:10:39;17.20;99.90
45329;DHT22;31063;48.356;10.896;2022-07-29T03:13:08;17.20;99.90
45329;DHT22;31063;48.356;10.896;2022-07-29T03:15:34;17.20;99.90
45329;DHT22;31063;48.356;10.896;2022-07-29T03:18:01;17.10;99.90
45329;DHT22;31063;48.356;10.896;2022-07-29T03:20:27;17.10;99.90
45329;DHT22;31063;48.356;10.896;2022-07-29T03:22:53;17.10;99.90
45329;DHT22;31063;48.356;10.896;2022-07-29T03:25:20;17.10;99.90
45329;DHT22;31063;48.356;10.896;2022-07-29T03:27:46;17.10;99.90
45329;DHT22;31063;48.356;10.896;2022-07-29T03:30:13;17.00;99.90
45329;DHT22;31063;48.356;10.896;2022-07-29T03:32:40;17.00;99.90
45329;DHT22;31063;48.356;10.896;2022-07-29T03:35:07;17.00;99.90
45329;DHT22;31063;48.356;10.896;2022-07-29T03:37:33;17.00;99.90
45329;DHT22;31063;48.356;10.896;2022-07-29T03:40:00;17.00;99.90
45329;DHT22;31063;48.356;10.896;2022-07-29T03:42:29;17.00;99.90
45329;DHT22;31063;48.356;10.896;2022-07-29T03:44:57;17.00;99.90
45329;DHT22;31063;48.356;10.896;2022-07-29T03:47:26;17.00;99.90
45329;DHT22;31063;48.356;10.896;2022-07-29T03:49:59;17.00;99.90
45329;DHT22;31063;48.356;10.896;2022-07-29T03:52:25;17.00;99.90
45329;DHT22;31063;48.356;10.896;2022-07-29T03:54:51;17.00;99.90
45329;DHT22;31063;48.356;10.896;2022-07-29T03:57:19;17.00;99.90
45329;DHT22;31063;48.356;10.896;2022-07-29T03:59:46;17.00;99.90
45329;DHT22;31063;48.356;10.896;2022-07-29T04:02:12;16.90;99.90
45329;DHT22;31063;48.356;10.896;2022-07-29T04:04:38;17.00;99.90
45329;DHT22;31063;48.356;10.896;2022-07-29T04:07:04;17.00;99.90
45329;DHT22;31063;48.356;10.896;2022-07-29T04:09:29;16.90;99.90
45329;DHT22;31063;48.356;10.896;2022-07-29T04:11:55;17.00;99.90
45329;DHT22;31063;48.356;10.896;2022-07-29T04:14:21;17.00;99.90
45329;DHT22;31063;48.356;10.896;2022-07-29T04:16:47;16.90;99.90
45329;DHT22;31063;48.356;10.896;2022-07-29T04:19:12;16.90;99.90
45329;DHT22;31063;48.356;10.896;2022-07-29T04:21:39;16.90;99.90
45329;DHT22;31063;48.356;10.896;2022-07-29T04:24:06;16.90;99.90
45329;DHT22;31063;48.356;10.896;2022-07-29T04:26:32;16.90;99.90
45329;DHT22;31063;48.356;10.896;2022-07-29T04:28:57;16.90;99.90
45329;DHT22;31063;48.356;10.896;2022-07-29T04:31:23;16.90;99.90
45329;DHT22;31063;48.356;10.896;2022-07-29T04:33:49;16.90;99.90
45329;DHT22;31063;48.356;10.896;2022-07-29T04:36:14;16.90;99.90
45329;DHT22;31063;48.356;10.896;2022-07-29T04:38:40;16.90;99.90
45329;DHT22;31063;48.356;10.896;2022-07-29T04:41:06;16.90;99.90
45329;DHT22;31063;48.356;10.896;2022-07-29T04:43:33;16.90;99.90
45329;DHT22;31063;48.356;10.896;2022-07-29T04:45:58;16.90;99.90
45329;DHT22;31063;48.356;10.896;2022-07-29T04:48:25;16.90;99.90
45329;DHT22;31063;48.356;10.896;2022-07-29T04:50:50;16.90;99.90
45329;DHT22;31063;48.356;10.896;2022-07-29T04:53:16;16.90;99.90
45329;DHT22;31063;48.356;10.896;2022-07-29T04:55:42;16.90;99.90
45329;DHT22;31063;48.356;10.896;2022-07-29T04:58:07;16.90;99.90
45329;DHT22;31063;48.356;10.896;2022-07-29T05:00:33;16.90;99.90
45329;DHT22;31063;48.356;10.896;2022-07-29T05:02:59;16.90;99.90
45329;DHT22;31063;48.356;10.896;2022-07-29T05:05:25;16.90;99.90
45329;DHT22;31063;48.356;10.896;2022-07-29T05:07:50;17.00;99.90
45329;DHT22;31063;48.356;10.896;2022-07-29T05:10:16;17.00;99.90
45329;DHT22;31063;48.356;10.896;2022-07-29T05:12:42;17.00;99.90
45329;DHT22;31063;48.356;10.896;2022-07-29T05:15:08;17.10;99.90
45329;DHT22;31063;48.356;10.896;2022-07-29T05:17:34;17.10;99.90
45329;DHT22;31063;48.356;10.896;2022-07-29T05:20:00;17.20;99.90
45329;DHT22;31063;48.356;10.896;2022-07-29T05:22:25;17.20;99.90
45329;DHT22;31063;48.356;10.896;2022-07-29T05:24:51;17.30;99.90
45329;DHT22;31063;48.356;10.896;2022-07-29T05:27:17;17.30;99.90
45329;DHT22;31063;48.356;10.896;2022-07-29T05:29:42;17.30;99.90
45329;DHT22;31063;48.356;10.896;2022-07-29T05:32:08;17.40;99.90
45329;DHT22;31063;48.356;10.896;2022-07-29T05:34:34;17.50;99.90
45329;DHT22;31063;48.356;10.896;2022-07-29T05:36:59;17.50;99.90
45329;DHT22;31063;48.356;10.896;2022-07-29T05:39:25;17.50;99.90
45329;DHT22;31063;48.356;10.896;2022-07-29T05:41:51;17.60;99.90
45329;DHT22;31063;48.356;10.896;2022-07-29T05:44:17;17.60;99.90
45329;DHT22;31063;48.356;10.896;2022-07-29T05:46:43;17.70;99.90
45329;DHT22;31063;48.356;10.896;2022-07-29T05:49:08;17.70;99.90
45329;DHT22;31063;48.356;10.896;2022-07-29T05:51:34;17.80;99.90
45329;DHT22;31063;48.356;10.896;2022-07-29T05:54:00;17.80;99.90
45329;DHT22;31063;48.356;10.896;2022-07-29T05:56:26;17.80;99.90
45329;DHT22;31063;48.356;10.896;2022-07-29T05:58:52;17.90;99.90
45329;DHT22;31063;48.356;10.896;2022-07-29T06:01:18;17.90;99.90
45329;DHT22;31063;48.356;10.896;2022-07-29T06:03:43;18.00;99.90
45329;DHT22;31063;48.356;10.896;2022-07-29T06:06:09;18.00;99.90
45329;DHT22;31063;48.356;10.896;2022-07-29T06:08:36;18.10;99.90
45329;DHT22;31063;48.356;10.896;2022-07-29T06:11:03;18.10;99.90
45329;DHT22;31063;48.356;10.896;2022-07-29T06:13:29;18.20;99.90
45329;DHT22;31063;48.356;10.896;2022-07-29T06:15:55;18.20;99.90
45329;DHT22;31063;48.356;10.896;2022-07-29T06:18:21;18.30;99.90
45329;DHT22;31063;48.356;10.896;2022-07-29T06:20:50;18.30;99.90
45329;DHT22;31063;48.356;10.896;2022-07-29T06:23:16;18.40;99.90
45329;DHT22;31063;48.356;10.896;2022-07-29T06:25:42;18.50;99.90
45329;DHT22;31063;48.356;10.896;2022-07-29T06:28:08;18.50;99.90
45329;DHT22;31063;48.356;10.896;2022-07-29T06:30:33;18.60;99.90
45329;DHT22;31063;48.356;10.896;2022-07-29T06:32:59;18.60;99.90
45329;DHT22;31063;48.356;10.896;2022-07-29T06:35:25;18.70;99.90
45329;DHT22;31063;48.356;10.896;2022-07-29T06:37:51;18.80;99.90
45329;DHT22;31063;48.356;10.896;2022-07-29T06:40:17;18.80;99.90
45329;DHT22;31063;48.356;10.896;2022-07-29T06:43:01;18.90;99.90
45329;DHT22;31063;48.356;10.896;2022-07-29T06:45:26;18.90;99.90
45329;DHT22;31063;48.356;10.896;2022-07-29T06:50:31;19.10;99.90
45329;DHT22;31063;48.356;10.896;2022-07-29T06:52:56;19.10;99.90
45329;DHT22;31063;48.356;10.896;2022-07-29T06:55:22;19.20;99.90
45329;DHT22;31063;48.356;10.896;2022-07-29T06:57:48;19.30;99.90
45329;DHT22;31063;48.356;10.896;2022-07-29T07:00:14;19.40;99.90
45329;DHT22;31063;48.356;10.896;2022-07-29T07:02:39;19.40;99.90
45329;DHT22;31063;48.356;10.896;2022-07-29T07:05:05;19.50;99.90
45329;DHT22;31063;48.356;10.896;2022-07-29T07:07:31;19.60;99.90
45329;DHT22;31063;48.356;10.896;2022-07-29T07:09:57;19.60;99.90
45329;DHT22;31063;48.356;10.896;2022-07-29T07:12:23;19.70;99.90
45329;DHT22;31063;48.356;10.896;2022-07-29T07:14:48;19.80;99.90
45329;DHT22;31063;48.356;10.896;2022-07-29T07:17:14;19.80;99.90
45329;DHT22;31063;48.356;10.896;2022-07-29T07:19:39;19.90;99.90
45329;DHT22;31063;48.356;10.896;2022-07-29T07:22:05;20.00;99.90
45329;DHT22;31063;48.356;10.896;2022-07-29T07:24:31;20.10;99.90
45329;DHT22;31063;48.356;10.896;2022-07-29T07:26:56;20.20;99.90
45329;DHT22;31063;48.356;10.896;2022-07-29T07:29:22;20.30;99.90
45329;DHT22;31063;48.356;10.896;2022-07-29T07:31:48;20.40;99.90
45329;DHT22;31063;48.356;10.896;2022-07-29T07:34:13;20.50;99.90
45329;DHT22;31063;48.356;10.896;2022-07-29T07:36:39;20.60;99.90
45329;DHT22;31063;48.356;10.896;2022-07-29T07:39:05;20.70;99.90
45329;DHT22;31063;48.356;10.896;2022-07-29T07:41:30;20.80;99.90
45329;DHT22;31063;48.356;10.896;2022-07-29T07:43:56;20.90;99.90
45329;DHT22;31063;48.356;10.896;2022-07-29T07:46:22;21.00;99.90
45329;DHT22;31063;48.356;10.896;2022-07-29T07:48:47;21.10;99.90
45329;DHT22;31063;48.356;10.896;2022-07-29T07:51:13;21.10;99.90
45329;DHT22;31063;48.356;10.896;2022-07-29T07:53:39;21.20;99.90
45329;DHT22;31063;48.356;10.896;2022-07-29T07:56:04;21.30;99.90
45329;DHT22;31063;48.356;10.896;2022-07-29T07:58:31;21.40;99.90
45329;DHT22;31063;48.356;10.896;2022-07-29T08:00:57;21.50;99.90
45329;DHT22;31063;48.356;10.896;2022-07-29T08:03:23;21.60;99.90
45329;DHT22;31063;48.356;10.896;2022-07-29T08:05:48;21.60;99.90
45329;DHT22;31063;48.356;10.896;2022-07-29T08:08:16;21.70;99.90
45329;DHT22;31063;48.356;10.896;2022-07-29T08:10:41;21.70;99.90
45329;DHT22;31063;48.356;10.896;2022-07-29T08:13:22;21.70;99.90
45329;DHT22;31063;48.356;10.896;2022-07-29T08:15:48;21.80;99.90
45329;DHT22;31063;48.356;10.896;2022-07-29T08:18:26;21.80;99.90
45329;DHT22;31063;48.356;10.896;2022-07-29T08:20:51;21.80;99.90
45329;DHT22;31063;48.356;10.896;2022-07-29T08:23:17;21.80;99.90
45329;DHT22;31063;48.356;10.896;2022-07-29T08:25:44;21.90;99.90
45329;DHT22;31063;48.356;10.896;2022-07-29T08:28:10;21.90;99.90
45329;DHT22;31063;48.356;10.896;2022-07-29T08:30:35;22.00;99.90
45329;DHT22;31063;48.356;10.896;2022-07-29T08:33:01;22.00;99.90
45329;DHT22;31063;48.356;10.896;2022-07-29T08:35:27;22.00;99.90
45329;DHT22;31063;48.356;10.896;2022-07-29T08:37:53;22.00;99.90
45329;DHT22;31063;48.356;10.896;2022-07-29T08:40:20;22.10;99.90
45329;DHT22;31063;48.356;10.896;2022-07-29T08:42:46;22.10;99.90
45329;DHT22;31063;48.356;10.896;2022-07-29T08:45:11;22.20;99.90
45329;DHT22;31063;48.356;10.896;2022-07-29T08:47:39;22.20;99.90
45329;DHT22;31063;48.356;10.896;2022-07-29T08:50:09;22.30;99.90
45329;DHT22;31063;48.356;10.896;2022-07-29T08:52:41;22.40;99.90
45329;DHT22;31063;48.356;10.896;2022-07-29T08:55:08;22.40;99.90
45329;DHT22;31063;48.356;10.896;2022-07-29T08:57:35;22.50;99.90
45329;DHT22;31063;48.356;10.896;2022-07-29T09:00:02;22.60;99.90
45329;DHT22;31063;48.356;10.896;2022-07-29T09:02:30;22.70;99.90
45329;DHT22;31063;48.356;10.896;2022-07-29T09:04:59;22.70;99.90
45329;DHT22;31063;48.356;10.896;2022-07-29T09:07:25;22.70;99.90
45329;DHT22;31063;48.356;10.896;2022-07-29T09:09:51;22.70;99.90
45329;DHT22;31063;48.356;10.896;2022-07-29T09:12:17;22.80;99.90
45329;DHT22;31063;48.356;10.896;2022-07-29T09:14:42;22.80;99.90
45329;DHT22;31063;48.356;10.896;2022-07-29T09:17:08;22.80;99.90
45329;DHT22;31063;48.356;10.896;2022-07-29T09:19:35;22.90;99.90
45329;DHT22;31063;48.356;10.896;2022-07-29T09:22:04;22.90;99.90
45329;DHT22;31063;48.356;10.896;2022-07-29T09:27:08;22.70;99.90
45329;DHT22;31063;48.356;10.896;2022-07-29T09:29:34;22.80;99.90
45329;DHT22;31063;48.356;10.896;2022-07-29T09:32:00;23.00;99.90
45329;DHT22;31063;48.356;10.896;2022-07-29T09:34:28;23.00;99.90
45329;DHT22;31063;48.356;10.896;2022-07-29T09:36:56;23.10;99.90
45329;DHT22;31063;48.356;10.896;2022-07-29T09:39:37;23.20;99.90
45329;DHT22;31063;48.356;10.896;2022-07-29T09:42:09;23.20;99.90
45329;DHT22;31063;48.356;10.896;2022-07-29T09:44:44;23.30;99.90
45329;DHT22;31063;48.356;10.896;2022-07-29T09:47:10;23.30;99.90
45329;DHT22;31063;48.356;10.896;2022-07-29T09:49:57;23.40;99.90
45329;DHT22;31063;48.356;10.896;2022-07-29T09:52:27;23.40;99.90
45329;DHT22;31063;48.356;10.896;2022-07-29T09:54:52;23.50;99.90
45329;DHT22;31063;48.356;10.896;2022-07-29T09:57:26;23.50;99.90
45329;DHT22;31063;48.356;10.896;2022-07-29T09:59:59;23.60;99.90
45329;DHT22;31063;48.356;10.896;2022-07-29T10:02:33;23.70;99.90
45329;DHT22;31063;48.356;10.896;2022-07-29T10:05:00;23.70;99.90
45329;DHT22;31063;48.356;10.896;2022-07-29T10:07:26;23.70;99.90
45329;DHT22;31063;48.356;10.896;2022-07-29T10:09:55;23.70;99.90
45329;DHT22;31063;48.356;10.896;2022-07-29T10:12:23;23.70;99.90
45329;DHT22;31063;48.356;10.896;2022-07-29T10:14:49;23.70;99.70
45329;DHT22;31063;48.356;10.896;2022-07-29T10:17:16;23.70;99.80
45329;DHT22;31063;48.356;10.896;2022-07-29T10:19:42;23.70;99.90
45329;DHT22;31063;48.356;10.896;2022-07-29T10:22:09;23.70;99.90
45329;DHT22;31063;48.356;10.896;2022-07-29T10:24:37;23.90;99.90
45329;DHT22;31063;48.356;10.896;2022-07-29T10:27:05;23.90;99.90
45329;DHT22;31063;48.356;10.896;2022-07-29T10:29:31;23.90;99.90
45329;DHT22;31063;48.356;10.896;2022-07-29T10:35:11;24.00;99.90
45329;DHT22;31063;48.356;10.896;2022-07-29T10:43:19;24.30;99.90
45329;DHT22;31063;48.356;10.896;2022-07-29T10:45:47;24.30;99.80
45329;DHT22;31063;48.356;10.896;2022-07-29T10:48:13;24.30;99.10
45329;DHT22;31063;48.356;10.896;2022-07-29T10:51:00;24.30;99.10
45329;DHT22;31063;48.356;10.896;2022-07-29T10:54:01;24.30;99.20
45329;DHT22;31063;48.356;10.896;2022-07-29T10:56:32;24.40;99.00
45329;DHT22;31063;48.356;10.896;2022-07-29T11:01:46;24.60;98.20
45329;DHT22;31063;48.356;10.896;2022-07-29T11:04:12;24.60;98.00
45329;DHT22;31063;48.356;10.896;2022-07-29T11:09:22;24.60;98.30
45329;DHT22;31063;48.356;10.896;2022-07-29T11:11:48;24.70;98.60
45329;DHT22;31063;48.356;10.896;2022-07-29T11:14:14;24.70;98.40
45329;DHT22;31063;48.356;10.896;2022-07-29T11:16:59;24.80;98.20
45329;DHT22;31063;48.356;10.896;2022-07-29T11:19:27;24.90;97.90
45329;DHT22;31063;48.356;10.896;2022-07-29T11:21:53;24.90;98.00
45329;DHT22;31063;48.356;10.896;2022-07-29T11:24:22;25.00;98.10
45329;DHT22;31063;48.356;10.896;2022-07-29T11:27:30;25.10;97.20
45329;DHT22;31063;48.356;10.896;2022-07-29T11:29:58;25.10;97.20
45329;DHT22;31063;48.356;10.896;2022-07-29T11:32:36;25.30;96.90
45329;DHT22;31063;48.356;10.896;2022-07-29T11:35:20;25.30;94.80
45329;DHT22;31063;48.356;10.896;2022-07-29T11:41:25;25.40;93.50
45329;DHT22;31063;48.356;10.896;2022-07-29T11:43:53;25.50;90.30
45329;DHT22;31063;48.356;10.896;2022-07-29T11:46:48;25.50;87.50
45329;DHT22;31063;48.356;10.896;2022-07-29T11:49:22;25.50;87.80
45329;DHT22;31063;48.356;10.896;2022-07-29T11:51:56;25.60;89.50
45329;DHT22;31063;48.356;10.896;2022-07-29T11:54:31;25.50;86.00
45329;DHT22;31063;48.356;10.896;2022-07-29T11:56:58;25.40;85.90
45329;DHT22;31063;48.356;10.896;2022-07-29T11:59:24;25.50;85.00
45329;DHT22;31063;48.356;10.896;2022-07-29T12:01:57;25.40;83.50
45329;DHT22;31063;48.356;10.896;2022-07-29T12:04:23;25.50;85.90
45329;DHT22;31063;48.356;10.896;2022-07-29T12:06:53;25.50;86.20
45329;DHT22;31063;48.356;10.896;2022-07-29T12:09:19;25.60;84.60
45329;DHT22;31063;48.356;10.896;2022-07-29T12:11:46;25.60;79.20
45329;DHT22;31063;48.356;10.896;2022-07-29T12:14:29;25.60;78.60
45329;DHT22;31063;48.356;10.896;2022-07-29T12:16:55;25.60;79.60
45329;DHT22;31063;48.356;10.896;2022-07-29T12:19:21;25.60;81.80
45329;DHT22;31063;48.356;10.896;2022-07-29T12:21:49;25.60;83.00
45329;DHT22;31063;48.356;10.896;2022-07-29T12:24:15;25.70;81.90
45329;DHT22;31063;48.356;10.896;2022-07-29T12:29:16;25.80;81.20
45329;DHT22;31063;48.356;10.896;2022-07-29T12:31:43;25.80;82.90
45329;DHT22;31063;48.356;10.896;2022-07-29T12:34:10;25.80;82.90
45329;DHT22;31063;48.356;10.896;2022-07-29T12:36:37;25.90;82.60
45329;DHT22;31063;48.356;10.896;2022-07-29T12:39:03;25.80;81.90
45329;DHT22;31063;48.356;10.896;2022-07-29T12:41:29;25.80;82.30
45329;DHT22;31063;48.356;10.896;2022-07-29T12:43:56;25.80;85.40
45329;DHT22;31063;48.356;10.896;2022-07-29T12:46:21;25.80;80.00
45329;DHT22;31063;48.356;10.896;2022-07-29T12:48:51;25.70;78.50
45329;DHT22;31063;48.356;10.896;2022-07-29T12:51:37;25.50;79.00
45329;DHT22;31063;48.356;10.896;2022-07-29T12:54:12;25.50;80.50
45329;DHT22;31063;48.356;10.896;2022-07-29T12:56:40;25.40;78.40
45329;DHT22;31063;48.356;10.896;2022-07-29T12:59:18;25.30;73.00
45329;DHT22;31063;48.356;10.896;2022-07-29T13:01:45;25.30;72.30
45329;DHT22;31063;48.356;10.896;2022-07-29T13:04:28;25.20;64.70
45329;DHT22;31063;48.356;10.896;2022-07-29T13:07:02;25.20;62.10
45329;DHT22;31063;48.356;10.896;2022-07-29T13:09:48;25.10;64.70
45329;DHT22;31063;48.356;10.896;2022-07-29T13:12:14;25.10;64.40
45329;DHT22;31063;48.356;10.896;2022-07-29T13:14:45;25.00;67.20
45329;DHT22;31063;48.356;10.896;2022-07-29T13:17:21;25.00;70.10
45329;DHT22;31063;48.356;10.896;2022-07-29T13:20:04;25.00;71.40
45329;DHT22;31063;48.356;10.896;2022-07-29T13:22:31;24.90;72.60
45329;DHT22;31063;48.356;10.896;2022-07-29T13:24:59;24.90;72.00
45329;DHT22;31063;48.356;10.896;2022-07-29T13:27:30;24.80;73.60
45329;DHT22;31063;48.356;10.896;2022-07-29T13:29:59;24.80;73.60
45329;DHT22;31063;48.356;10.896;2022-07-29T13:32:26;24.80;73.90
45329;DHT22;31063;48.356;10.896;2022-07-29T13:34:53;24.80;74.20
45329;DHT22;31063;48.356;10.896;2022-07-29T13:37:18;24.90;75.50
45329;DHT22;31063;48.356;10.896;2022-07-29T13:39:44;24.90;74.90
45329;DHT22;31063;48.356;10.896;2022-07-29T13:42:10;24.80;72.10
45329;DHT22;31063;48.356;10.896;2022-07-29T13:44:41;24.80;72.10
45329;DHT22;31063;48.356;10.896;2022-07-29T13:47:07;24.80;71.50
45329;DHT22;31063;48.356;10.896;2022-07-29T13:49:33;24.80;71.60
45329;DHT22;31063;48.356;10.896;2022-07-29T13:51:59;24.80;71.70
45329;DHT22;31063;48.356;10.896;2022-07-29T13:54:25;24.80;72.40
45329;DHT22;31063;48.356;10.896;2022-07-29T13:56:51;25.00;74.40
45329;DHT22;31063;48.356;10.896;2022-07-29T13:59:17;25.00;73.10
45329;DHT22;31063;48.356;10.896;2022-07-29T14:01:42;25.10;73.10
45329;DHT22;31063;48.356;10.896;2022-07-29T14:04:09;25.00;73.40
45329;DHT22;31063;48.356;10.896;2022-07-29T14:06:35;25.00;74.40
45329;DHT22;31063;48.356;10.896;2022-07-29T14:09:01;25.10;75.40
45329;DHT22;31063;48.356;10.896;2022-07-29T14:11:26;25.10;72.90
45329;DHT22;31063;48.356;10.896;2022-07-29T14:13:52;25.10;72.80
45329;DHT22;31063;48.356;10.896;2022-07-29T14:16:18;25.20;74.30
45329;DHT22;31063;48.356;10.896;2022-07-29T14:18:43;25.30;75.70
45329;DHT22;31063;48.356;10.896;2022-07-29T14:21:09;25.30;75.00
45329;DHT22;31063;48.356;10.896;2022-07-29T14:23:35;25.50;75.10
45329;DHT22;31063;48.356;10.896;2022-07-29T14:26:01;25.50;75.00
45329;DHT22;31063;48.356;10.896;2022-07-29T14:28:27;25.60;70.80
45329;DHT22;31063;48.356;10.896;2022-07-29T14:30:52;25.70;68.40
45329;DHT22;31063;48.356;10.896;2022-07-29T14:33:18;25.80;66.90
45329;DHT22;31063;48.356;10.896;2022-07-29T14:35:44;25.80;66.70
45329;DHT22;31063;48.356;10.896;2022-07-29T14:38:10;25.80;61.60
45329;DHT22;31063;48.356;10.896;2022-07-29T14:40:35;25.90;64.30
45329;DHT22;31063;48.356;10.896;2022-07-29T14:43:02;25.80;64.40
45329;DHT22;31063;48.356;10.896;2022-07-29T14:45:28;25.90;65.20
45329;DHT22;31063;48.356;10.896;2022-07-29T14:47:53;25.90;64.50
45329;DHT22;31063;48.356;10.896;2022-07-29T14:50:19;25.90;63.60
45329;DHT22;31063;48.356;10.896;2022-07-29T14:52:45;25.90;65.80
45329;DHT22;31063;48.356;10.896;2022-07-29T14:55:11;25.90;68.40
45329;DHT22;31063;48.356;10.896;2022-07-29T14:57:36;25.90;68.70
45329;DHT22;31063;48.356;10.896;2022-07-29T15:00:04;25.90;66.30
45329;DHT22;31063;48.356;10.896;2022-07-29T15:02:32;26.00;65.50
45329;DHT22;31063;48.356;10.896;2022-07-29T15:04:58;26.00;63.60
45329;DHT22;31063;48.356;10.896;2022-07-29T15:07:23;25.90;65.30
45329;DHT22;31063;48.356;10.896;2022-07-29T15:09:49;25.80;65.00
45329;DHT22;31063;48.356;10.896;2022-07-29T15:12:14;25.90;66.40
45329;DHT22;31063;48.356;10.896;2022-07-29T15:14:40;26.00;68.30
45329;DHT22;31063;48.356;10.896;2022-07-29T15:17:06;26.10;68.50
45329;DHT22;31063;48.356;10.896;2022-07-29T15:19:32;26.10;67.30
45329;DHT22;31063;48.356;10.896;2022-07-29T15:21:58;26.10;66.30
45329;DHT22;31063;48.356;10.896;2022-07-29T15:24:23;26.00;67.40
45329;DHT22;31063;48.356;10.896;2022-07-29T15:26:49;26.00;67.60
45329;DHT22;31063;48.356;10.896;2022-07-29T15:29:15;26.00;68.50
45329;DHT22;31063;48.356;10.896;2022-07-29T15:31:40;25.90;70.40
45329;DHT22;31063;48.356;10.896;2022-07-29T15:34:06;25.90;70.00
45329;DHT22;31063;48.356;10.896;2022-07-29T15:36:32;25.90;71.00
45329;DHT22;31063;48.356;10.896;2022-07-29T15:38:58;25.80;71.30
45329;DHT22;31063;48.356;10.896;2022-07-29T15:41:23;25.70;73.00
45329;DHT22;31063;48.356;10.896;2022-07-29T15:43:49;25.60;76.20
45329;DHT22;31063;48.356;10.896;2022-07-29T15:46:17;25.40;79.70
45329;DHT22;31063;48.356;10.896;2022-07-29T15:49:05;25.30;82.00
45329;DHT22;31063;48.356;10.896;2022-07-29T15:51:31;25.20;83.30
45329;DHT22;31063;48.356;10.896;2022-07-29T15:53:57;25.00;86.00
45329;DHT22;31063;48.356;10.896;2022-07-29T15:56:23;24.90;90.50
45329;DHT22;31063;48.356;10.896;2022-07-29T15:58:49;24.80;91.40
45329;DHT22;31063;48.356;10.896;2022-07-29T16:01:15;24.70;92.10
45329;DHT22;31063;48.356;10.896;2022-07-29T16:03:41;24.60;92.50